Time;durP1;ratioP1;P1;durP2;ratioP2;P2;SDS_P1;SDS_P2;PMS_P1;PMS_P2;Temp;Humidity;BMP_temperature;BMP_pressure;BME280_temperature;BME280_humidity;BME280_pressure;Samples;Min_cycle;Max_cycle;Signal;HPM_P1;HPM_P2
2023/12/30 00:02:32;;;;;;;14.17;6.50;;;7.20;99.90;;;;;;5039224;28;20241;-75
2023/12/30 00:05:20;;;;;;;12.70;6.83;;;7.20;99.90;;;;;;5037772;28;20325;-75
2023/12/30 00:08:07;;;;;;;13.80;6.80;;;7.20;99.90;;;;;;5037575;28;20204;-75
2023/12/30 00:10:54;;;;;;;16.20;7.20;;;7.10;99.90;;;;;;5038417;28;20726;-75
2023/12/30 00:13:42;;;;;;;13.43;6.80;;;7.10;99.90;;;;;;5038544;28;20199;-75
2023/12/30 00:16:29;;;;;;;14.60;6.90;;;7.10;99.90;;;;;;5038242;28;20203;-75
2023/12/30 00:19:18;;;;;;;13.90;6.50;;;6.90;99.90;;;;;;5038039;28;20204;-75
2023/12/30 00:22:06;;;;;;;14.43;6.43;;;7.00;99.90;;;;;;5038833;28;20199;-75
2023/12/30 00:24:54;;;;;;;12.63;6.77;;;6.90;99.90;;;;;;5039262;28;20299;-75
2023/12/30 00:27:41;;;;;;;11.50;6.50;;;6.90;99.90;;;;;;5037512;28;20220;-75
2023/12/30 00:30:29;;;;;;;12.67;6.43;;;6.90;99.90;;;;;;5038786;28;20341;-75
2023/12/30 00:33:17;;;;;;;12.93;6.70;;;6.90;99.90;;;;;;5037836;28;20202;-75
2023/12/30 00:36:04;;;;;;;11.80;6.27;;;6.80;99.90;;;;;;5037662;28;20198;-75
2023/12/30 00:38:55;;;;;;;11.93;7.03;;;6.80;99.90;;;;;;5034893;28;20200;-75
2023/12/30 00:41:42;;;;;;;11.73;6.57;;;6.80;99.90;;;;;;5035043;28;20664;-75
2023/12/30 00:44:29;;;;;;;13.43;6.60;;;6.70;99.90;;;;;;5034926;28;20577;-75
2023/12/30 00:47:17;;;;;;;13.87;6.67;;;6.70;99.90;;;;;;5035193;28;20286;-75
2023/12/30 00:50:04;;;;;;;12.23;5.87;;;6.60;99.90;;;;;;5035389;28;20228;-75
2023/12/30 00:52:52;;;;;;;14.50;6.90;;;6.60;99.90;;;;;;5035281;28;20224;-75
2023/12/30 00:55:39;;;;;;;13.37;6.43;;;6.60;99.90;;;;;;5034627;28;20242;-75
2023/12/30 00:58:26;;;;;;;13.10;6.47;;;6.60;99.90;;;;;;5035685;28;20192;-75
2023/12/30 01:01:14;;;;;;;12.70;6.70;;;6.50;99.90;;;;;;5035211;28;20211;-75
2023/12/30 01:04:02;;;;;;;11.17;6.40;;;6.50;99.90;;;;;;5033511;28;20238;-75
2023/12/30 01:06:50;;;;;;;12.17;5.93;;;6.50;99.90;;;;;;5033219;28;20243;-75
2023/12/30 01:09:38;;;;;;;11.90;6.80;;;6.50;99.90;;;;;;5035653;28;20193;-75
2023/12/30 01:12:26;;;;;;;12.47;6.23;;;6.40;99.90;;;;;;5034237;28;20265;-75
2023/12/30 01:15:13;;;;;;;11.40;6.20;;;6.40;99.90;;;;;;5033910;28;20292;-74
2023/12/30 01:18:02;;;;;;;14.17;6.60;;;6.40;99.90;;;;;;5034266;28;20199;-74
2023/12/30 01:20:49;;;;;;;11.47;5.93;;;6.40;99.90;;;;;;5033176;28;20195;-75
2023/12/30 01:23:37;;;;;;;15.33;6.30;;;6.40;99.90;;;;;;5033168;28;20236;-75
2023/12/30 01:26:24;;;;;;;13.10;6.13;;;6.50;99.90;;;;;;5032606;28;20217;-75
2023/12/30 01:29:11;;;;;;;16.77;7.20;;;6.50;99.90;;;;;;5033376;28;20378;-74
2023/12/30 01:31:59;;;;;;;13.10;6.03;;;6.60;99.90;;;;;;5033517;28;20251;-75
2023/12/30 01:34:46;;;;;;;12.43;5.77;;;6.60;99.90;;;;;;5034494;28;20214;-74
2023/12/30 01:37:34;;;;;;;11.23;6.10;;;6.60;99.90;;;;;;5033912;28;20199;-74
2023/12/30 01:40:21;;;;;;;10.67;5.93;;;6.70;99.90;;;;;;5033450;28;20206;-74
2023/12/30 01:43:29;;;;;;;12.17;5.80;;;6.70;99.90;;;;;;5033842;28;20203;-75
2023/12/30 01:46:18;;;;;;;12.07;5.40;;;6.70;99.90;;;;;;5033022;28;20226;-75
2023/12/30 01:49:06;;;;;;;10.30;5.77;;;6.80;99.90;;;;;;5032730;28;20234;-75
2023/12/30 01:51:54;;;;;;;11.10;5.80;;;6.90;99.90;;;;;;5034240;28;20698;-75
2023/12/30 01:54:42;;;;;;;9.10;5.47;;;6.90;99.90;;;;;;5034555;28;20237;-75
2023/12/30 01:57:30;;;;;;;12.77;6.30;;;6.90;99.90;;;;;;5033435;28;20266;-75
2023/12/30 02:00:20;;;;;;;10.77;5.43;;;6.90;99.90;;;;;;5032670;28;20581;-75
2023/12/30 02:03:08;;;;;;;10.20;5.30;;;7.00;99.90;;;;;;5033417;28;20231;-75
2023/12/30 02:05:56;;;;;;;9.80;5.37;;;7.00;99.90;;;;;;5032836;28;20240;-75
2023/12/30 02:08:44;;;;;;;10.17;5.53;;;7.10;99.90;;;;;;5033872;28;20253;-74
2023/12/30 02:11:32;;;;;;;12.10;5.70;;;7.20;99.90;;;;;;5032214;28;20699;-75
2023/12/30 02:14:27;;;;;;;9.80;5.53;;;7.20;99.90;;;;;;5035097;28;20193;-75
2023/12/30 02:17:14;;;;;;;10.97;5.47;;;7.20;99.90;;;;;;5034678;28;20292;-76
2023/12/30 02:20:02;;;;;;;11.60;5.37;;;7.30;99.90;;;;;;5033172;28;20601;-75
2023/12/30 02:22:49;;;;;;;9.17;5.33;;;7.40;99.90;;;;;;5033716;28;20187;-75
2023/12/30 02:25:37;;;;;;;9.30;5.03;;;7.30;99.90;;;;;;5033011;28;20664;-75
2023/12/30 02:28:24;;;;;;;9.43;5.07;;;7.40;99.90;;;;;;5032582;28;20311;-75
2023/12/30 02:31:12;;;;;;;10.83;4.93;;;7.50;99.90;;;;;;5031816;28;20652;-75
2023/12/30 02:33:59;;;;;;;8.67;4.83;;;7.50;99.90;;;;;;5032821;28;20192;-74
2023/12/30 02:36:47;;;;;;;8.63;4.53;;;7.50;99.90;;;;;;5032894;28;20240;-75
2023/12/30 02:39:35;;;;;;;9.20;4.80;;;7.50;99.90;;;;;;5032043;28;20195;-75
2023/12/30 02:42:22;;;;;;;8.13;4.63;;;7.60;99.90;;;;;;5032695;28;20239;-75
2023/12/30 02:45:10;;;;;;;7.10;4.40;;;7.60;99.90;;;;;;5032273;28;20199;-75
2023/12/30 02:47:58;;;;;;;8.63;4.70;;;7.70;99.90;;;;;;5032729;28;20207;-75
2023/12/30 02:50:45;;;;;;;8.37;4.43;;;7.70;99.90;;;;;;5032674;28;20199;-75
2023/12/30 02:53:33;;;;;;;8.33;4.30;;;7.80;99.90;;;;;;5032631;28;20231;-75
2023/12/30 02:56:25;;;;;;;8.50;4.17;;;7.80;99.90;;;;;;5032375;28;20353;-75
2023/12/30 02:59:12;;;;;;;7.53;4.00;;;7.90;99.90;;;;;;5031636;28;20195;-74
2023/12/30 03:02:00;;;;;;;8.13;4.10;;;7.90;99.90;;;;;;5031830;28;20596;-75
2023/12/30 03:04:47;;;;;;;5.97;3.43;;;8.00;99.90;;;;;;5031596;28;20196;-75
2023/12/30 03:07:36;;;;;;;6.77;3.40;;;8.10;99.90;;;;;;5031808;28;20216;-75
2023/12/30 03:10:24;;;;;;;8.27;3.80;;;8.10;99.90;;;;;;5032343;28;20281;-78
2023/12/30 03:13:11;;;;;;;7.03;3.60;;;8.20;99.90;;;;;;5033534;28;20783;-77
2023/12/30 03:15:59;;;;;;;6.13;3.63;;;8.30;99.90;;;;;;5032637;28;20245;-75
2023/12/30 03:18:46;;;;;;;5.30;3.30;;;8.30;99.90;;;;;;5032737;28;20193;-75
2023/12/30 03:21:34;;;;;;;4.80;3.20;;;8.40;99.90;;;;;;5032374;28;20199;-75
2023/12/30 03:24:21;;;;;;;6.53;3.17;;;8.50;99.90;;;;;;5032179;28;20188;-75
2023/12/30 03:27:08;;;;;;;5.63;3.03;;;8.50;99.90;;;;;;5032105;28;20223;-75
2023/12/30 03:29:56;;;;;;;4.93;3.00;;;8.60;99.90;;;;;;5033017;28;20348;-76
2023/12/30 03:32:43;;;;;;;5.73;3.10;;;8.70;99.90;;;;;;5031654;28;20590;-75
2023/12/30 03:35:33;;;;;;;4.93;3.03;;;8.70;99.90;;;;;;5032130;28;20195;-75
2023/12/30 03:38:21;;;;;;;3.90;2.57;;;8.70;99.90;;;;;;5033040;28;20199;-75
2023/12/30 03:41:08;;;;;;;5.40;3.00;;;8.70;99.90;;;;;;5030963;28;20228;-75
2023/12/30 03:43:56;;;;;;;5.87;3.07;;;8.80;99.90;;;;;;5031414;28;20272;-75
2023/12/30 03:46:43;;;;;;;5.73;2.70;;;8.90;99.90;;;;;;5032561;28;20650;-75
2023/12/30 03:49:30;;;;;;;6.13;2.80;;;8.90;99.90;;;;;;5031023;28;20570;-75
2023/12/30 03:52:18;;;;;;;5.33;2.70;;;9.00;99.90;;;;;;5032170;28;20357;-75
2023/12/30 03:55:06;;;;;;;5.47;2.60;;;9.00;99.90;;;;;;5032973;28;20207;-75
2023/12/30 03:57:53;;;;;;;5.30;2.70;;;9.00;99.90;;;;;;5030797;28;20212;-74
2023/12/30 04:00:41;;;;;;;5.93;2.87;;;9.00;99.90;;;;;;5031899;28;20206;-75
2023/12/30 04:03:28;;;;;;;6.20;2.83;;;9.00;99.90;;;;;;5031797;28;20738;-75
2023/12/30 04:06:18;;;;;;;4.23;2.60;;;9.00;99.90;;;;;;5031937;28;20705;-75
2023/12/30 04:09:05;;;;;;;5.53;2.70;;;9.10;99.90;;;;;;5031929;28;20683;-75
2023/12/30 04:11:53;;;;;;;5.33;2.70;;;9.00;99.90;;;;;;5031987;28;20228;-76
2023/12/30 04:14:40;;;;;;;5.70;2.67;;;9.00;99.90;;;;;;5035501;28;20197;-75
2023/12/30 04:17:27;;;;;;;4.93;2.37;;;9.10;99.90;;;;;;5034622;28;20198;-77
2023/12/30 04:20:15;;;;;;;3.97;2.37;;;9.10;99.90;;;;;;5034573;28;20200;-74
2023/12/30 04:23:02;;;;;;;3.97;2.40;;;9.10;99.90;;;;;;5034967;28;20229;-75
2023/12/30 04:25:50;;;;;;;6.17;2.73;;;9.20;99.90;;;;;;5035520;28;20498;-75
2023/12/30 04:28:37;;;;;;;4.83;2.40;;;9.20;99.90;;;;;;5035294;28;20193;-74
2023/12/30 04:31:25;;;;;;;4.27;2.50;;;9.20;99.90;;;;;;5035478;28;20323;-75
2023/12/30 04:34:12;;;;;;;3.90;2.30;;;9.30;99.90;;;;;;5035113;28;20193;-74
2023/12/30 04:37:00;;;;;;;3.23;2.10;;;9.30;99.90;;;;;;5035012;28;20237;-75
2023/12/30 04:39:47;;;;;;;4.50;2.43;;;9.40;99.90;;;;;;5034911;28;20198;-76
2023/12/30 04:42:35;;;;;;;3.30;2.13;;;9.40;99.90;;;;;;5019819;28;20597;-74
2023/12/30 04:45:23;;;;;;;3.60;2.23;;;9.50;99.90;;;;;;5035492;28;20363;-76
2023/12/30 04:48:11;;;;;;;4.10;2.30;;;9.60;99.90;;;;;;5034730;28;20317;-77
2023/12/30 04:50:58;;;;;;;3.93;2.30;;;9.60;99.90;;;;;;5034467;28;20198;-84
2023/12/30 04:53:45;;;;;;;3.30;2.13;;;9.60;99.90;;;;;;5035591;28;20273;-80
2023/12/30 04:56:33;;;;;;;4.10;2.10;;;9.60;99.90;;;;;;5035514;28;20224;-78
2023/12/30 04:59:20;;;;;;;3.20;2.10;;;9.70;99.90;;;;;;5035436;28;20246;-77
2023/12/30 05:02:08;;;;;;;5.10;2.20;;;9.70;99.90;;;;;;5034670;28;20202;-76
2023/12/30 05:04:55;;;;;;;3.67;2.17;;;9.70;99.90;;;;;;5034879;28;20317;-77
2023/12/30 05:07:42;;;;;;;3.43;2.10;;;9.70;99.90;;;;;;5034551;28;20336;-76
2023/12/30 05:10:30;;;;;;;4.27;2.07;;;9.60;99.90;;;;;;5035077;28;20199;-77
2023/12/30 05:13:17;;;;;;;4.13;2.20;;;9.60;99.90;;;;;;5033445;28;20231;-76
2023/12/30 05:16:06;;;;;;;3.63;2.40;;;9.60;99.90;;;;;;5033768;28;20219;-76
2023/12/30 05:18:53;;;;;;;3.47;2.20;;;9.60;99.90;;;;;;5033714;28;20201;-77
2023/12/30 05:21:41;;;;;;;3.73;2.40;;;9.60;99.90;;;;;;5034623;28;20651;-77
2023/12/30 05:24:29;;;;;;;3.27;2.20;;;9.50;99.90;;;;;;5033744;28;20196;-77
2023/12/30 05:27:16;;;;;;;3.13;2.07;;;9.50;99.90;;;;;;5034273;28;20624;-76
2023/12/30 05:30:07;;;;;;;5.40;2.70;;;9.50;99.90;;;;;;5034226;28;20658;-76
2023/12/30 05:32:55;;;;;;;5.43;2.10;;;9.50;99.90;;;;;;5034728;28;20217;-77
2023/12/30 05:35:42;;;;;;;3.70;2.13;;;9.40;99.90;;;;;;5034586;28;20203;-76
2023/12/30 05:38:29;;;;;;;3.70;2.10;;;9.40;99.90;;;;;;5033668;28;20188;-76
2023/12/30 05:41:17;;;;;;;3.10;2.00;;;9.40;99.90;;;;;;5033097;28;20231;-76
2023/12/30 05:44:04;;;;;;;2.60;1.77;;;9.50;99.90;;;;;;5034186;28;20198;-77
2023/12/30 05:46:51;;;;;;;3.87;2.00;;;9.40;99.90;;;;;;5033554;28;20307;-76
2023/12/30 05:49:42;;;;;;;3.47;2.07;;;9.40;99.90;;;;;;5033448;28;20662;-77
2023/12/30 05:52:29;;;;;;;3.53;1.83;;;9.40;99.90;;;;;;5033927;28;20229;-76
2023/12/30 05:55:17;;;;;;;3.87;2.20;;;9.40;99.90;;;;;;5034171;28;20597;-76
2023/12/30 05:58:04;;;;;;;2.87;1.97;;;9.40;99.90;;;;;;5033668;28;20203;-76
2023/12/30 06:00:51;;;;;;;4.63;1.97;;;9.30;99.90;;;;;;5033370;28;20265;-76
2023/12/30 06:03:39;;;;;;;4.13;2.03;;;9.30;99.90;;;;;;5034553;28;20332;-77
2023/12/30 06:06:26;;;;;;;2.77;1.80;;;9.30;99.90;;;;;;5033457;28;20238;-76
2023/12/30 06:09:15;;;;;;;3.90;2.03;;;9.30;99.90;;;;;;5033876;28;20214;-77
2023/12/30 06:12:03;;;;;;;2.70;2.00;;;9.30;99.90;;;;;;5033394;28;20221;-77
2023/12/30 06:14:51;;;;;;;5.10;2.00;;;9.20;99.90;;;;;;5032229;28;20198;-77
2023/12/30 06:17:38;;;;;;;3.40;1.90;;;9.10;99.90;;;;;;5033253;28;20200;-77
2023/12/30 06:20:25;;;;;;;3.97;2.23;;;8.90;99.90;;;;;;5033136;28;20202;-77
2023/12/30 06:23:13;;;;;;;4.03;2.10;;;8.70;99.90;;;;;;5032750;28;20642;-77
2023/12/30 06:26:01;;;;;;;4.07;2.10;;;8.60;99.90;;;;;;5034273;28;20213;-77
2023/12/30 06:28:49;;;;;;;3.27;2.10;;;8.40;99.90;;;;;;5033114;28;20217;-77
2023/12/30 06:31:41;;;;;;;3.13;1.90;;;8.30;99.90;;;;;;5033072;28;20200;-78
2023/12/30 06:34:30;;;;;;;3.07;1.90;;;8.20;99.90;;;;;;5032322;28;20225;-77
2023/12/30 06:37:18;;;;;;;4.30;1.97;;;8.10;99.90;;;;;;5031273;28;20322;-77
2023/12/30 06:40:06;;;;;;;3.07;1.90;;;8.00;99.90;;;;;;5033097;28;20682;-77
2023/12/30 06:42:54;;;;;;;3.60;2.00;;;7.90;99.90;;;;;;5031652;28;20224;-77
2023/12/30 06:45:41;;;;;;;2.40;1.80;;;7.90;99.90;;;;;;5032788;28;20207;-77
2023/12/30 06:48:29;;;;;;;2.77;1.80;;;7.80;99.90;;;;;;5033992;28;20545;-77
2023/12/30 06:51:17;;;;;;;2.13;1.40;;;7.60;99.90;;;;;;5032847;28;20717;-77
2023/12/30 06:54:05;;;;;;;2.07;1.10;;;7.40;99.90;;;;;;5032688;28;20719;-77
2023/12/30 06:56:53;;;;;;;2.13;0.97;;;7.20;99.90;;;;;;5032432;28;20262;-77
2023/12/30 06:59:41;;;;;;;1.00;0.90;;;7.20;99.90;;;;;;5033051;28;20200;-77
2023/12/30 07:02:29;;;;;;;5.13;1.27;;;7.10;99.90;;;;;;5032433;28;20785;-77
2023/12/30 07:05:16;;;;;;;2.03;1.20;;;7.00;99.90;;;;;;5031284;28;20310;-77
2023/12/30 07:08:03;;;;;;;1.47;1.20;;;7.00;99.90;;;;;;5033000;28;20188;-77
2023/12/30 07:10:51;;;;;;;1.90;1.20;;;7.00;99.90;;;;;;5031009;28;20265;-77
2023/12/30 07:13:38;;;;;;;1.40;1.20;;;7.00;99.90;;;;;;5032902;28;20676;-77
2023/12/30 07:16:26;;;;;;;2.57;1.33;;;6.90;99.90;;;;;;5031774;28;20203;-77
2023/12/30 07:19:13;;;;;;;2.07;1.50;;;7.00;99.90;;;;;;5032471;28;20564;-77
2023/12/30 07:22:01;;;;;;;2.53;1.70;;;7.00;99.90;;;;;;5032024;28;20197;-77
2023/12/30 07:24:49;;;;;;;3.07;1.60;;;7.00;99.90;;;;;;5032987;28;20241;-77
2023/12/30 07:27:36;;;;;;;3.23;1.40;;;7.10;99.90;;;;;;5031196;28;20266;-77
2023/12/30 07:30:23;;;;;;;4.37;1.90;;;7.10;99.90;;;;;;5031808;28;20200;-77
2023/12/30 07:33:11;;;;;;;2.57;1.53;;;7.00;99.90;;;;;;5032262;28;20224;-77
2023/12/30 07:35:58;;;;;;;2.90;1.90;;;7.10;99.90;;;;;;5031947;28;20275;-77
2023/12/30 07:38:45;;;;;;;3.17;1.60;;;7.20;99.90;;;;;;5032430;28;20195;-77
2023/12/30 07:41:33;;;;;;;4.67;2.33;;;7.20;99.90;;;;;;5031222;28;20243;-77
2023/12/30 07:44:21;;;;;;;4.23;1.90;;;7.20;99.90;;;;;;5032705;28;20193;-77
2023/12/30 07:47:08;;;;;;;3.03;1.70;;;7.20;99.90;;;;;;5033243;28;20218;-77
2023/12/30 07:49:56;;;;;;;6.37;2.00;;;7.20;99.90;;;;;;5036552;28;20223;-77
2023/12/30 07:52:43;;;;;;;4.90;2.20;;;7.30;99.90;;;;;;5035359;28;20203;-77
2023/12/30 07:55:31;;;;;;;2.93;2.20;;;7.30;99.90;;;;;;5035225;28;20275;-77
2023/12/30 07:58:18;;;;;;;3.20;1.80;;;7.40;99.90;;;;;;5034979;28;20198;-77
2023/12/30 08:01:06;;;;;;;2.67;1.80;;;7.50;99.90;;;;;;5037002;28;20196;-77
2023/12/30 08:03:53;;;;;;;2.77;1.80;;;7.90;99.90;;;;;;5036127;28;20192;-77
2023/12/30 08:06:41;;;;;;;2.10;1.67;;;8.20;99.90;;;;;;5036656;28;20237;-77
2023/12/30 08:09:29;;;;;;;4.97;1.53;;;8.50;99.90;;;;;;5035799;28;20677;-78
2023/12/30 08:12:16;;;;;;;3.10;1.53;;;8.70;99.90;;;;;;5035471;28;20594;-78
2023/12/30 08:15:04;;;;;;;2.27;1.40;;;8.90;99.90;;;;;;5034579;28;20214;-78
2023/12/30 08:17:52;;;;;;;2.40;1.20;;;8.80;99.90;;;;;;5034967;28;20673;-78
2023/12/30 08:20:39;;;;;;;1.43;1.03;;;8.70;99.90;;;;;;5034664;28;20195;-78
2023/12/30 08:23:27;;;;;;;1.67;1.10;;;8.50;99.90;;;;;;5035756;28;20260;-77
2023/12/30 08:26:14;;;;;;;1.13;0.93;;;8.30;99.90;;;;;;5035247;28;20226;-78
2023/12/30 08:29:01;;;;;;;1.70;1.10;;;8.20;99.90;;;;;;5035567;28;20266;-78
2023/12/30 08:31:49;;;;;;;1.77;1.00;;;8.10;99.90;;;;;;5035415;28;20287;-78
2023/12/30 08:34:37;;;;;;;2.13;1.13;;;8.10;99.90;;;;;;5036188;28;20222;-77
2023/12/30 08:37:24;;;;;;;1.23;1.00;;;8.10;99.90;;;;;;5034968;28;20258;-78
2023/12/30 08:40:14;;;;;;;2.07;1.00;;;8.00;99.90;;;;;;5035061;28;20246;-78
2023/12/30 08:43:01;;;;;;;1.93;0.90;;;8.00;99.90;;;;;;5035185;28;20277;-78
2023/12/30 08:45:49;;;;;;;2.67;1.10;;;8.00;99.90;;;;;;5034386;28;20620;-77
2023/12/30 08:48:37;;;;;;;1.43;0.90;;;8.00;99.90;;;;;;5034300;28;20260;-77
2023/12/30 08:51:25;;;;;;;5.03;1.33;;;8.00;99.90;;;;;;5035253;28;20250;-77
2023/12/30 08:54:12;;;;;;;3.90;1.17;;;8.00;99.90;;;;;;5034658;28;20216;-78
2023/12/30 08:56:59;;;;;;;3.23;1.20;;;7.90;99.90;;;;;;5034749;28;20223;-77
2023/12/30 08:59:48;;;;;;;2.13;1.20;;;7.70;99.90;;;;;;5032949;28;20675;-78
2023/12/30 09:02:36;;;;;;;2.30;1.20;;;7.70;99.90;;;;;;5034995;28;20239;-78
2023/12/30 09:05:23;;;;;;;1.33;1.10;;;7.70;99.90;;;;;;5034561;28;20254;-78
2023/12/30 09:08:11;;;;;;;1.63;1.10;;;7.60;99.90;;;;;;5034820;28;20202;-78
2023/12/30 09:10:58;;;;;;;5.00;1.37;;;7.60;99.90;;;;;;5035026;28;20254;-78
2023/12/30 09:13:46;;;;;;;3.07;1.20;;;7.60;99.90;;;;;;5034382;28;20221;-78
2023/12/30 09:16:33;;;;;;;2.40;1.30;;;7.60;99.90;;;;;;5032806;28;20284;-78
2023/12/30 09:19:21;;;;;;;2.30;1.30;;;7.50;99.90;;;;;;5035222;28;20611;-78
2023/12/30 09:22:10;;;;;;;1.60;1.00;;;7.40;99.90;;;;;;5034393;28;20250;-78
2023/12/30 09:24:57;;;;;;;1.70;0.80;;;7.20;99.90;;;;;;5033443;28;20202;-77
2023/12/30 09:27:46;;;;;;;1.30;0.90;;;7.00;99.90;;;;;;5035086;28;20312;-77
2023/12/30 09:30:35;;;;;;;1.90;1.10;;;6.80;99.90;;;;;;5033998;28;20195;-77
2023/12/30 09:33:23;;;;;;;3.57;1.30;;;6.70;99.90;;;;;;5033944;28;20300;-77
2023/12/30 09:36:10;;;;;;;1.40;1.17;;;6.70;99.90;;;;;;5032871;28;20237;-77
2023/12/30 09:38:57;;;;;;;1.70;1.10;;;6.60;99.90;;;;;;5031841;28;20191;-77
2023/12/30 09:41:45;;;;;;;2.13;1.23;;;6.60;99.90;;;;;;5033264;28;20295;-77
2023/12/30 09:44:33;;;;;;;1.80;1.40;;;6.60;99.90;;;;;;5033937;28;20563;-77
2023/12/30 09:47:23;;;;;;;2.63;1.47;;;6.70;99.90;;;;;;5033345;28;20195;-78
2023/12/30 09:50:10;;;;;;;3.10;1.67;;;6.60;99.90;;;;;;5033759;28;20200;-77
2023/12/30 09:52:57;;;;;;;3.20;1.70;;;6.70;99.90;;;;;;5033741;28;20265;-77
2023/12/30 09:55:46;;;;;;;2.63;1.70;;;6.70;99.90;;;;;;5033580;28;20184;-78
2023/12/30 09:58:35;;;;;;;4.07;2.07;;;6.80;99.90;;;;;;5032313;28;20196;-78
2023/12/30 10:01:24;;;;;;;4.57;1.77;;;6.80;99.90;;;;;;5032112;28;20211;-77
2023/12/30 10:04:11;;;;;;;2.70;1.80;;;6.80;99.90;;;;;;5032199;28;20203;-78
2023/12/30 10:06:59;;;;;;;2.90;1.60;;;6.80;99.90;;;;;;5034040;28;20258;-78
2023/12/30 10:09:50;;;;;;;3.37;2.00;;;6.90;99.90;;;;;;5032171;28;20274;-78
2023/12/30 10:12:37;;;;;;;4.57;2.27;;;6.90;99.90;;;;;;5033791;28;20215;-78
2023/12/30 10:15:25;;;;;;;4.97;1.60;;;7.00;99.90;;;;;;5033173;28;20258;-78
2023/12/30 10:18:13;;;;;;;2.97;1.80;;;7.10;99.90;;;;;;5033544;28;20278;-78
2023/12/30 10:21:03;;;;;;;4.53;1.70;;;7.10;99.90;;;;;;5033822;28;20245;-78
2023/12/30 10:23:53;;;;;;;2.80;1.73;;;7.20;99.90;;;;;;5033194;28;20200;-77
2023/12/30 10:26:42;;;;;;;4.10;1.83;;;7.20;99.90;;;;;;5033602;28;20693;-78
2023/12/30 10:29:30;;;;;;;4.83;1.83;;;7.20;99.90;;;;;;5033268;28;20678;-77
2023/12/30 10:32:32;;;;;;;2.10;1.60;;;7.20;99.90;;;;;;5032719;28;20205;-77
2023/12/30 10:35:21;;;;;;;2.67;1.33;;;7.20;99.90;;;;;;5031937;28;20337;-77
2023/12/30 10:38:12;;;;;;;2.67;1.47;;;7.10;99.90;;;;;;5032911;28;20596;-77
2023/12/30 10:40:59;;;;;;;6.03;1.90;;;7.20;99.90;;;;;;5033041;28;20219;-77
2023/12/30 10:43:47;;;;;;;1.87;1.40;;;7.30;99.90;;;;;;5032846;28;20227;-77
2023/12/30 10:46:36;;;;;;;2.47;1.27;;;7.30;99.90;;;;;;5032758;28;20667;-77
2023/12/30 10:49:24;;;;;;;1.87;1.30;;;7.30;99.90;;;;;;5032664;28;20296;-77
2023/12/30 10:52:14;;;;;;;3.70;1.30;;;7.30;99.90;;;;;;5032678;28;20721;-77
2023/12/30 10:55:15;;;;;;;2.87;1.40;;;7.30;99.90;;;;;;5031961;28;20642;-77
2023/12/30 10:58:17;;;;;;;2.10;1.17;;;7.30;99.90;;;;;;5032161;28;20196;-77
2023/12/30 11:01:04;;;;;;;2.33;1.23;;;7.30;99.90;;;;;;5032696;28;20209;-77
2023/12/30 11:03:53;;;;;;;1.30;1.00;;;7.40;99.90;;;;;;5032665;28;20441;-77
2023/12/30 11:06:52;;;;;;;1.97;1.00;;;7.40;99.90;;;;;;5032740;28;20236;-77
2023/12/30 11:09:42;;;;;;;1.97;1.20;;;7.40;99.90;;;;;;5032785;28;20206;-77
2023/12/30 11:12:31;;;;;;;2.13;1.30;;;7.30;99.90;;;;;;5031335;28;20220;-77
2023/12/30 11:15:30;;;;;;;1.90;1.30;;;7.30;99.90;;;;;;5031642;28;20701;-77
2023/12/30 11:18:48;;;;;;;2.20;1.30;;;7.30;99.90;;;;;;5033012;28;20202;-76
2023/12/30 11:21:47;;;;;;;2.80;1.40;;;7.30;99.90;;;;;;5031805;28;20221;-76
2023/12/30 11:24:35;;;;;;;2.10;1.70;;;7.30;99.90;;;;;;5032251;28;20672;-76
2023/12/30 11:27:22;;;;;;;1.80;1.50;;;7.30;99.90;;;;;;5031022;28;20218;-76
2023/12/30 11:30:16;;;;;;;2.67;1.60;;;7.30;99.90;;;;;;5031340;28;20734;-76
2023/12/30 11:33:05;;;;;;;2.83;1.77;;;7.30;99.90;;;;;;5031312;28;20195;-76
2023/12/30 11:35:54;;;;;;;2.70;1.40;;;7.20;99.90;;;;;;5032187;28;20241;-76
2023/12/30 11:38:46;;;;;;;3.23;1.50;;;7.30;99.90;;;;;;5030888;28;20638;-76
2023/12/30 11:41:34;;;;;;;1.47;1.27;;;7.40;99.90;;;;;;5030940;28;20564;-76
2023/12/30 11:44:22;;;;;;;4.80;1.37;;;7.40;99.90;;;;;;5032099;28;20196;-77
2023/12/30 11:47:09;;;;;;;2.43;1.50;;;7.50;99.90;;;;;;5031356;28;20316;-76
2023/12/30 11:50:05;;;;;;;4.83;1.57;;;7.40;99.90;;;;;;5031398;28;20198;-77
2023/12/30 11:52:53;;;;;;;2.77;1.60;;;7.40;99.90;;;;;;5033193;28;20284;-77
2023/12/30 11:55:41;;;;;;;1.40;1.30;;;7.10;99.90;;;;;;5031443;28;20219;-77
2023/12/30 11:58:29;;;;;;;2.20;1.50;;;6.60;99.90;;;;;;5032015;28;20634;-77
2023/12/30 12:01:20;;;;;;;1.10;0.80;;;6.30;99.90;;;;;;5030840;28;20195;-77
2023/12/30 12:04:08;;;;;;;1.07;0.60;;;6.00;99.90;;;;;;5031885;28;20203;-77
2023/12/30 12:06:56;;;;;;;1.07;0.70;;;5.70;99.90;;;;;;5032453;28;20755;-77
2023/12/30 12:09:43;;;;;;;0.80;0.77;;;5.50;99.90;;;;;;5031798;28;20246;-77
2023/12/30 12:12:39;;;;;;;3.40;0.90;;;5.40;99.90;;;;;;5031709;28;20223;-77
2023/12/30 12:15:27;;;;;;;2.80;1.13;;;5.40;99.90;;;;;;5032868;28;20678;-77
2023/12/30 12:18:14;;;;;;;3.27;1.00;;;5.30;99.90;;;;;;5031863;28;20726;-77
2023/12/30 12:21:03;;;;;;;2.70;1.10;;;5.30;99.90;;;;;;5031848;28;20661;-77
2023/12/30 12:23:52;;;;;;;1.77;1.00;;;5.20;99.90;;;;;;5031561;28;20242;-76
2023/12/30 12:26:40;;;;;;;4.37;1.00;;;5.20;99.90;;;;;;5030396;28;20568;-76
2023/12/30 12:29:27;;;;;;;1.10;0.90;;;5.20;99.90;;;;;;5032431;28;20200;-76
2023/12/30 12:32:20;;;;;;;3.60;1.00;;;5.20;99.90;;;;;;5031836;28;20195;-76
2023/12/30 12:35:07;;;;;;;1.30;0.80;;;5.20;99.90;;;;;;5034894;28;20634;-76
2023/12/30 12:37:55;;;;;;;1.77;1.10;;;5.20;99.90;;;;;;5034436;28;20196;-76
2023/12/30 12:40:45;;;;;;;2.43;1.20;;;5.20;99.90;;;;;;5034058;28;20218;-76
2023/12/30 12:43:32;;;;;;;2.77;1.10;;;5.20;99.90;;;;;;5034283;28;20206;-77
2023/12/30 12:46:19;;;;;;;2.83;1.20;;;5.20;99.90;;;;;;5035539;28;20195;-77
2023/12/30 12:49:07;;;;;;;4.57;1.50;;;5.30;99.90;;;;;;5033318;28;20392;-77
2023/12/30 12:51:54;;;;;;;2.43;1.30;;;5.40;99.90;;;;;;5033961;28;20192;-77
2023/12/30 12:54:42;;;;;;;3.00;1.50;;;5.40;99.90;;;;;;5033812;28;20219;-77
2023/12/30 12:57:29;;;;;;;3.07;1.50;;;5.40;99.90;;;;;;5034648;28;20218;-77
2023/12/30 13:00:18;;;;;;;3.50;1.70;;;5.60;99.90;;;;;;5035178;28;20573;-78
2023/12/30 13:03:05;;;;;;;2.97;1.43;;;5.60;99.90;;;;;;5034723;28;20187;-77
2023/12/30 13:05:53;;;;;;;1.90;1.33;;;5.70;99.90;;;;;;5035640;28;20321;-76
2023/12/30 13:08:41;;;;;;;2.53;1.50;;;5.70;99.90;;;;;;5033701;28;20652;-76
2023/12/30 13:11:32;;;;;;;5.10;1.90;;;5.70;99.90;;;;;;5034122;28;20258;-76
2023/12/30 13:14:22;;;;;;;2.73;1.53;;;5.70;99.90;;;;;;5034897;28;20705;-77
2023/12/30 13:17:12;;;;;;;3.70;1.63;;;5.70;99.90;;;;;;5033360;28;20195;-76
2023/12/30 13:20:00;;;;;;;4.30;1.80;;;5.80;99.90;;;;;;5033295;28;20731;-77
2023/12/30 13:22:54;;;;;;;3.63;1.80;;;5.80;99.90;;;;;;5034321;28;20201;-76
2023/12/30 13:25:42;;;;;;;3.60;1.80;;;5.90;99.90;;;;;;5021117;28;20283;-76
2023/12/30 13:28:30;;;;;;;3.30;1.87;;;5.90;99.90;;;;;;5034329;28;20281;-77
2023/12/30 13:31:24;;;;;;;4.17;1.80;;;6.00;99.90;;;;;;5034732;28;20227;-77
2023/12/30 13:34:12;;;;;;;5.33;2.20;;;6.00;99.90;;;;;;5033676;28;20192;-77
2023/12/30 13:37:05;;;;;;;4.30;2.00;;;6.10;99.90;;;;;;5034284;28;20318;-77
2023/12/30 13:39:57;;;;;;;5.53;2.20;;;6.00;99.90;;;;;;5034728;28;20282;-77
2023/12/30 13:42:45;;;;;;;5.00;1.90;;;6.00;99.90;;;;;;5034746;28;20226;-76
2023/12/30 13:45:33;;;;;;;3.83;1.70;;;6.00;99.90;;;;;;5032697;28;20188;-76
2023/12/30 13:48:48;;;;;;;3.33;1.93;;;5.90;99.90;;;;;;5034059;28;20215;-76
2023/12/30 13:51:30;;;;;;;3.33;1.83;;;5.90;99.90;;;;;;5033733;28;20200;-76
2023/12/30 13:54:20;;;;;;;4.50;1.90;;;5.80;99.90;;;;;;5032110;28;20224;-77
2023/12/30 13:57:12;;;;;;;3.70;1.90;;;5.90;99.90;;;;;;5034900;28;20611;-77
2023/12/30 13:59:59;;;;;;;3.77;1.93;;;5.90;99.90;;;;;;5033792;28;20199;-76
2023/12/30 14:02:48;;;;;;;4.40;2.20;;;6.00;99.90;;;;;;5033783;28;20286;-76
2023/12/30 14:05:44;;;;;;;5.00;1.87;;;6.00;99.90;;;;;;5033434;28;20224;-76
2023/12/30 14:08:41;;;;;;;3.60;1.77;;;6.00;99.90;;;;;;5031709;28;20675;-76
2023/12/30 14:11:43;;;;;;;4.13;2.00;;;5.90;99.90;;;;;;5032390;28;20292;-76
2023/12/30 14:14:40;;;;;;;4.50;2.07;;;5.80;99.90;;;;;;5034457;28;20215;-76
2023/12/30 14:17:31;;;;;;;4.33;2.27;;;5.70;99.90;;;;;;5033992;28;20671;-76
2023/12/30 14:20:18;;;;;;;4.50;2.27;;;5.70;99.90;;;;;;5033521;28;20249;-76
2023/12/30 14:23:06;;;;;;;5.23;2.50;;;5.70;99.90;;;;;;5033388;28;20261;-76
2023/12/30 14:25:54;;;;;;;4.23;2.00;;;5.60;99.90;;;;;;5032444;28;20219;-76
2023/12/30 14:28:42;;;;;;;5.43;2.00;;;5.50;99.90;;;;;;5033321;28;20606;-76
2023/12/30 14:31:30;;;;;;;9.07;2.10;;;5.50;99.90;;;;;;5033323;28;20195;-77
2023/12/30 14:34:18;;;;;;;6.00;1.80;;;5.50;99.90;;;;;;5033192;28;20207;-77
2023/12/30 14:37:08;;;;;;;2.50;1.60;;;5.50;99.90;;;;;;5033568;28;20196;-77
2023/12/30 14:39:55;;;;;;;5.63;1.93;;;5.50;99.90;;;;;;5033255;28;20206;-77
2023/12/30 14:42:43;;;;;;;4.03;1.80;;;5.50;99.90;;;;;;5032054;28;20215;-76
2023/12/30 14:45:30;;;;;;;8.20;1.87;;;5.50;99.90;;;;;;5031918;28;20199;-76
2023/12/30 14:48:17;;;;;;;3.77;2.20;;;5.50;99.90;;;;;;5033330;28;20288;-76